sensor_id;sensor_type;location;lat;lon;timestamp;P1;durP1;ratioP1;P2;durP2;ratioP2
21671;SDS011;10997;52.242;8.168;2022-07-22T00:00:54;20.50;;;13.98;;
21671;SDS011;10997;52.242;8.168;2022-07-22T00:05:54;19.73;;;14.35;;
21671;SDS011;10997;52.242;8.168;2022-07-22T00:10:55;21.33;;;14.23;;
21671;SDS011;10997;52.242;8.168;2022-07-22T00:15:56;20.88;;;14.43;;
21671;SDS011;10997;52.242;8.168;2022-07-22T00:20:57;24.80;;;15.38;;
21671;SDS011;10997;52.242;8.168;2022-07-22T00:25:58;17.98;;;12.95;;
21671;SDS011;10997;52.242;8.168;2022-07-22T00:30:59;20.08;;;12.10;;
21671;SDS011;10997;52.242;8.168;2022-07-22T00:36:00;19.20;;;13.50;;
21671;SDS011;10997;52.242;8.168;2022-07-22T00:41:00;19.65;;;13.10;;
21671;SDS011;10997;52.242;8.168;2022-07-22T00:46:01;16.42;;;10.00;;
21671;SDS011;10997;52.242;8.168;2022-07-22T00:51:02;11.23;;;7.90;;
21671;SDS011;10997;52.242;8.168;2022-07-22T00:56:03;16.45;;;8.85;;
21671;SDS011;10997;52.242;8.168;2022-07-22T01:01:04;13.63;;;9.65;;
21671;SDS011;10997;52.242;8.168;2022-07-22T01:06:04;12.40;;;10.65;;
21671;SDS011;10997;52.242;8.168;2022-07-22T01:11:15;13.80;;;10.65;;
21671;SDS011;10997;52.242;8.168;2022-07-22T01:16:18;12.07;;;8.93;;
21671;SDS011;10997;52.242;8.168;2022-07-22T01:21:19;12.43;;;8.40;;
21671;SDS011;10997;52.242;8.168;2022-07-22T01:26:20;13.88;;;7.95;;
21671;SDS011;10997;52.242;8.168;2022-07-22T01:31:20;12.38;;;7.18;;
21671;SDS011;10997;52.242;8.168;2022-07-22T01:36:21;13.30;;;6.82;;
21671;SDS011;10997;52.242;8.168;2022-07-22T01:41:22;10.75;;;5.60;;
21671;SDS011;10997;52.242;8.168;2022-07-22T01:46:23;8.93;;;5.57;;
21671;SDS011;10997;52.242;8.168;2022-07-22T01:51:24;10.88;;;5.60;;
21671;SDS011;10997;52.242;8.168;2022-07-22T01:56:25;12.10;;;6.22;;
21671;SDS011;10997;52.242;8.168;2022-07-22T02:01:25;10.65;;;6.03;;
21671;SDS011;10997;52.242;8.168;2022-07-22T02:06:26;8.52;;;5.20;;
21671;SDS011;10997;52.242;8.168;2022-07-22T02:11:27;10.32;;;5.07;;
21671;SDS011;10997;52.242;8.168;2022-07-22T02:16:27;7.28;;;4.90;;
21671;SDS011;10997;52.242;8.168;2022-07-22T02:21:28;9.57;;;5.60;;
21671;SDS011;10997;52.242;8.168;2022-07-22T02:26:29;7.55;;;4.53;;
21671;SDS011;10997;52.242;8.168;2022-07-22T02:31:30;10.20;;;4.40;;
21671;SDS011;10997;52.242;8.168;2022-07-22T02:36:31;7.65;;;4.45;;
21671;SDS011;10997;52.242;8.168;2022-07-22T02:41:31;9.23;;;4.95;;
21671;SDS011;10997;52.242;8.168;2022-07-22T02:46:32;9.70;;;4.60;;
21671;SDS011;10997;52.242;8.168;2022-07-22T02:51:33;7.97;;;4.78;;
21671;SDS011;10997;52.242;8.168;2022-07-22T02:56:34;10.45;;;5.05;;
21671;SDS011;10997;52.242;8.168;2022-07-22T03:01:35;9.55;;;5.18;;
21671;SDS011;10997;52.242;8.168;2022-07-22T03:06:35;11.02;;;5.38;;
21671;SDS011;10997;52.242;8.168;2022-07-22T03:11:39;16.85;;;5.30;;
21671;SDS011;10997;52.242;8.168;2022-07-22T03:16:40;7.82;;;4.97;;
21671;SDS011;10997;52.242;8.168;2022-07-22T03:21:40;9.40;;;5.40;;
21671;SDS011;10997;52.242;8.168;2022-07-22T03:26:41;12.70;;;5.70;;
21671;SDS011;10997;52.242;8.168;2022-07-22T03:31:42;9.93;;;5.55;;
21671;SDS011;10997;52.242;8.168;2022-07-22T03:36:42;9.40;;;5.65;;
21671;SDS011;10997;52.242;8.168;2022-07-22T03:41:43;11.68;;;5.70;;
21671;SDS011;10997;52.242;8.168;2022-07-22T03:46:44;8.65;;;4.90;;
21671;SDS011;10997;52.242;8.168;2022-07-22T03:51:44;13.75;;;5.65;;
21671;SDS011;10997;52.242;8.168;2022-07-22T03:56:45;6.13;;;4.63;;
21671;SDS011;10997;52.242;8.168;2022-07-22T04:01:46;12.75;;;5.03;;
21671;SDS011;10997;52.242;8.168;2022-07-22T04:06:47;7.57;;;4.78;;
21671;SDS011;10997;52.242;8.168;2022-07-22T04:11:47;10.98;;;4.85;;
21671;SDS011;10997;52.242;8.168;2022-07-22T04:16:50;8.68;;;4.65;;
21671;SDS011;10997;52.242;8.168;2022-07-22T04:21:51;9.80;;;5.10;;
21671;SDS011;10997;52.242;8.168;2022-07-22T04:26:52;8.38;;;5.10;;
21671;SDS011;10997;52.242;8.168;2022-07-22T04:31:52;9.80;;;5.30;;
21671;SDS011;10997;52.242;8.168;2022-07-22T04:36:53;10.15;;;5.70;;
21671;SDS011;10997;52.242;8.168;2022-07-22T04:41:53;12.95;;;5.75;;
21671;SDS011;10997;52.242;8.168;2022-07-22T04:46:54;9.52;;;5.38;;
21671;SDS011;10997;52.242;8.168;2022-07-22T04:51:55;8.95;;;4.95;;
21671;SDS011;10997;52.242;8.168;2022-07-22T04:56:56;9.27;;;4.65;;
21671;SDS011;10997;52.242;8.168;2022-07-22T05:01:56;8.77;;;4.88;;
21671;SDS011;10997;52.242;8.168;2022-07-22T05:06:57;13.40;;;4.93;;
21671;SDS011;10997;52.242;8.168;2022-07-22T05:11:58;13.02;;;5.05;;
21671;SDS011;10997;52.242;8.168;2022-07-22T05:16:59;15.43;;;4.82;;
21671;SDS011;10997;52.242;8.168;2022-07-22T05:21:59;18.48;;;5.80;;
21671;SDS011;10997;52.242;8.168;2022-07-22T05:27:00;17.20;;;5.68;;
21671;SDS011;10997;52.242;8.168;2022-07-22T05:32:01;18.13;;;5.68;;
21671;SDS011;10997;52.242;8.168;2022-07-22T05:37:01;19.75;;;5.90;;
21671;SDS011;10997;52.242;8.168;2022-07-22T05:42:02;19.98;;;5.65;;
21671;SDS011;10997;52.242;8.168;2022-07-22T05:47:03;16.20;;;6.20;;
21671;SDS011;10997;52.242;8.168;2022-07-22T05:52:04;16.00;;;6.05;;
21671;SDS011;10997;52.242;8.168;2022-07-22T05:57:05;20.83;;;6.10;;
21671;SDS011;10997;52.242;8.168;2022-07-22T06:02:09;14.80;;;5.32;;
21671;SDS011;10997;52.242;8.168;2022-07-22T06:07:10;12.30;;;5.05;;
21671;SDS011;10997;52.242;8.168;2022-07-22T06:12:10;12.85;;;5.47;;
21671;SDS011;10997;52.242;8.168;2022-07-22T06:17:11;16.70;;;5.63;;
21671;SDS011;10997;52.242;8.168;2022-07-22T06:22:12;20.73;;;5.95;;
21671;SDS011;10997;52.242;8.168;2022-07-22T06:27:13;16.25;;;5.70;;
21671;SDS011;10997;52.242;8.168;2022-07-22T06:32:14;13.23;;;5.25;;
21671;SDS011;10997;52.242;8.168;2022-07-22T06:37:15;14.60;;;5.47;;
21671;SDS011;10997;52.242;8.168;2022-07-22T06:42:15;12.45;;;5.60;;
21671;SDS011;10997;52.242;8.168;2022-07-22T06:47:16;12.95;;;5.10;;
21671;SDS011;10997;52.242;8.168;2022-07-22T06:52:17;20.23;;;5.90;;
21671;SDS011;10997;52.242;8.168;2022-07-22T06:57:17;20.20;;;5.22;;
21671;SDS011;10997;52.242;8.168;2022-07-22T07:02:18;12.93;;;5.05;;
21671;SDS011;10997;52.242;8.168;2022-07-22T07:07:25;12.82;;;5.30;;
21671;SDS011;10997;52.242;8.168;2022-07-22T07:12:25;10.93;;;5.05;;
21671;SDS011;10997;52.242;8.168;2022-07-22T07:17:26;12.02;;;4.85;;
21671;SDS011;10997;52.242;8.168;2022-07-22T07:22:27;11.32;;;4.90;;
21671;SDS011;10997;52.242;8.168;2022-07-22T07:27:28;10.57;;;4.90;;
21671;SDS011;10997;52.242;8.168;2022-07-22T07:32:28;12.88;;;4.70;;
21671;SDS011;10997;52.242;8.168;2022-07-22T07:37:29;7.30;;;4.03;;
21671;SDS011;10997;52.242;8.168;2022-07-22T07:42:30;10.50;;;4.20;;
21671;SDS011;10997;52.242;8.168;2022-07-22T07:47:30;9.60;;;3.45;;
21671;SDS011;10997;52.242;8.168;2022-07-22T07:52:31;11.45;;;3.95;;
21671;SDS011;10997;52.242;8.168;2022-07-22T07:57:40;6.70;;;2.72;;
21671;SDS011;10997;52.242;8.168;2022-07-22T08:02:41;7.28;;;2.72;;
21671;SDS011;10997;52.242;8.168;2022-07-22T08:07:42;7.75;;;3.20;;
21671;SDS011;10997;52.242;8.168;2022-07-22T08:12:42;10.98;;;3.50;;
21671;SDS011;10997;52.242;8.168;2022-07-22T08:17:43;6.60;;;3.10;;
21671;SDS011;10997;52.242;8.168;2022-07-22T08:22:44;7.32;;;3.00;;
21671;SDS011;10997;52.242;8.168;2022-07-22T08:27:45;8.07;;;3.17;;
21671;SDS011;10997;52.242;8.168;2022-07-22T08:32:46;7.57;;;3.05;;
21671;SDS011;10997;52.242;8.168;2022-07-22T08:37:48;7.70;;;3.30;;
21671;SDS011;10997;52.242;8.168;2022-07-22T08:42:49;7.72;;;3.30;;
21671;SDS011;10997;52.242;8.168;2022-07-22T08:47:51;7.82;;;2.80;;
21671;SDS011;10997;52.242;8.168;2022-07-22T08:52:53;7.53;;;2.92;;
21671;SDS011;10997;52.242;8.168;2022-07-22T08:57:54;10.20;;;3.10;;
21671;SDS011;10997;52.242;8.168;2022-07-22T09:02:55;9.55;;;3.17;;
21671;SDS011;10997;52.242;8.168;2022-07-22T09:07:57;7.47;;;3.00;;
21671;SDS011;10997;52.242;8.168;2022-07-22T09:13:00;8.85;;;3.20;;
21671;SDS011;10997;52.242;8.168;2022-07-22T09:18:02;10.13;;;3.90;;
21671;SDS011;10997;52.242;8.168;2022-07-22T09:23:14;9.32;;;3.33;;
21671;SDS011;10997;52.242;8.168;2022-07-22T09:28:22;6.55;;;3.10;;
21671;SDS011;10997;52.242;8.168;2022-07-22T09:33:25;9.70;;;3.38;;
21671;SDS011;10997;52.242;8.168;2022-07-22T09:38:27;7.20;;;3.50;;
21671;SDS011;10997;52.242;8.168;2022-07-22T09:43:28;10.55;;;3.40;;
21671;SDS011;10997;52.242;8.168;2022-07-22T09:48:35;9.20;;;3.42;;
21671;SDS011;10997;52.242;8.168;2022-07-22T09:53:37;8.43;;;3.45;;
21671;SDS011;10997;52.242;8.168;2022-07-22T09:58:37;7.47;;;3.78;;
21671;SDS011;10997;52.242;8.168;2022-07-22T10:03:38;9.15;;;3.58;;
21671;SDS011;10997;52.242;8.168;2022-07-22T10:08:42;7.05;;;3.38;;
21671;SDS011;10997;52.242;8.168;2022-07-22T10:13:43;8.60;;;3.60;;
21671;SDS011;10997;52.242;8.168;2022-07-22T10:18:44;7.10;;;3.47;;
21671;SDS011;10997;52.242;8.168;2022-07-22T10:29:25;9.57;;;3.90;;
21671;SDS011;10997;52.242;8.168;2022-07-22T10:34:27;10.40;;;4.25;;
21671;SDS011;10997;52.242;8.168;2022-07-22T10:39:27;10.32;;;3.63;;
21671;SDS011;10997;52.242;8.168;2022-07-22T10:44:46;8.27;;;3.95;;
21671;SDS011;10997;52.242;8.168;2022-07-22T10:49:51;8.27;;;4.07;;
21671;SDS011;10997;52.242;8.168;2022-07-22T11:00:21;10.63;;;3.85;;
21671;SDS011;10997;52.242;8.168;2022-07-22T11:05:25;8.82;;;3.72;;
21671;SDS011;10997;52.242;8.168;2022-07-22T11:10:27;9.40;;;3.70;;
21671;SDS011;10997;52.242;8.168;2022-07-22T11:15:28;9.43;;;3.40;;
21671;SDS011;10997;52.242;8.168;2022-07-22T11:20:28;8.43;;;3.72;;
21671;SDS011;10997;52.242;8.168;2022-07-22T11:25:29;8.63;;;3.30;;
21671;SDS011;10997;52.242;8.168;2022-07-22T11:30:30;8.25;;;3.30;;
21671;SDS011;10997;52.242;8.168;2022-07-22T11:35:31;8.80;;;3.63;;
21671;SDS011;10997;52.242;8.168;2022-07-22T11:40:32;6.93;;;3.08;;
21671;SDS011;10997;52.242;8.168;2022-07-22T11:45:33;8.13;;;3.20;;
21671;SDS011;10997;52.242;8.168;2022-07-22T11:50:34;4.80;;;2.95;;
21671;SDS011;10997;52.242;8.168;2022-07-22T11:55:34;8.35;;;3.25;;
21671;SDS011;10997;52.242;8.168;2022-07-22T12:00:35;6.15;;;3.22;;
21671;SDS011;10997;52.242;8.168;2022-07-22T12:05:36;8.43;;;3.60;;
21671;SDS011;10997;52.242;8.168;2022-07-22T12:10:36;7.07;;;3.00;;
21671;SDS011;10997;52.242;8.168;2022-07-22T12:15:37;6.43;;;3.28;;
21671;SDS011;10997;52.242;8.168;2022-07-22T12:20:45;7.78;;;3.15;;
21671;SDS011;10997;52.242;8.168;2022-07-22T12:25:57;7.80;;;3.20;;
21671;SDS011;10997;52.242;8.168;2022-07-22T12:30:59;7.80;;;3.25;;
21671;SDS011;10997;52.242;8.168;2022-07-22T12:46:29;7.95;;;3.30;;
21671;SDS011;10997;52.242;8.168;2022-07-22T12:51:30;8.13;;;3.13;;
21671;SDS011;10997;52.242;8.168;2022-07-22T12:56:31;6.85;;;3.25;;
21671;SDS011;10997;52.242;8.168;2022-07-22T13:01:33;6.70;;;3.63;;
21671;SDS011;10997;52.242;8.168;2022-07-22T13:06:34;9.50;;;3.60;;
21671;SDS011;10997;52.242;8.168;2022-07-22T13:11:35;7.57;;;2.88;;
21671;SDS011;10997;52.242;8.168;2022-07-22T13:16:39;9.63;;;2.90;;
21671;SDS011;10997;52.242;8.168;2022-07-22T13:21:40;7.57;;;3.65;;
21671;SDS011;10997;52.242;8.168;2022-07-22T13:26:40;6.35;;;3.45;;
21671;SDS011;10997;52.242;8.168;2022-07-22T13:31:41;9.50;;;3.75;;
21671;SDS011;10997;52.242;8.168;2022-07-22T13:36:42;5.43;;;3.05;;
21671;SDS011;10997;52.242;8.168;2022-07-22T13:41:43;6.50;;;3.17;;
21671;SDS011;10997;52.242;8.168;2022-07-22T13:46:43;6.28;;;3.25;;
21671;SDS011;10997;52.242;8.168;2022-07-22T13:51:45;6.60;;;2.75;;
21671;SDS011;10997;52.242;8.168;2022-07-22T13:56:46;6.47;;;3.08;;
21671;SDS011;10997;52.242;8.168;2022-07-22T14:01:49;8.77;;;3.67;;
21671;SDS011;10997;52.242;8.168;2022-07-22T14:06:50;6.38;;;3.45;;
21671;SDS011;10997;52.242;8.168;2022-07-22T14:11:51;7.22;;;2.95;;
21671;SDS011;10997;52.242;8.168;2022-07-22T14:16:52;5.50;;;3.13;;
21671;SDS011;10997;52.242;8.168;2022-07-22T14:21:52;5.07;;;2.90;;
21671;SDS011;10997;52.242;8.168;2022-07-22T14:26:53;5.32;;;3.00;;
21671;SDS011;10997;52.242;8.168;2022-07-22T14:31:54;7.13;;;3.13;;
21671;SDS011;10997;52.242;8.168;2022-07-22T14:36:54;6.10;;;3.30;;
21671;SDS011;10997;52.242;8.168;2022-07-22T14:41:56;6.57;;;2.97;;
21671;SDS011;10997;52.242;8.168;2022-07-22T14:46:56;7.20;;;3.03;;
21671;SDS011;10997;52.242;8.168;2022-07-22T14:51:57;4.75;;;3.10;;
21671;SDS011;10997;52.242;8.168;2022-07-22T14:56:58;5.55;;;3.10;;
21671;SDS011;10997;52.242;8.168;2022-07-22T15:01:58;5.32;;;2.72;;
21671;SDS011;10997;52.242;8.168;2022-07-22T15:06:59;8.05;;;3.22;;
21671;SDS011;10997;52.242;8.168;2022-07-22T15:12:02;6.85;;;3.22;;
21671;SDS011;10997;52.242;8.168;2022-07-22T15:17:05;6.38;;;3.10;;
21671;SDS011;10997;52.242;8.168;2022-07-22T15:22:09;6.60;;;3.20;;
21671;SDS011;10997;52.242;8.168;2022-07-22T15:27:09;10.77;;;3.53;;
21671;SDS011;10997;52.242;8.168;2022-07-22T15:32:10;4.93;;;2.90;;
21671;SDS011;10997;52.242;8.168;2022-07-22T15:37:12;6.05;;;3.08;;
21671;SDS011;10997;52.242;8.168;2022-07-22T15:42:13;7.35;;;3.05;;
21671;SDS011;10997;52.242;8.168;2022-07-22T15:47:13;4.88;;;2.72;;
21671;SDS011;10997;52.242;8.168;2022-07-22T15:52:14;6.18;;;3.05;;
21671;SDS011;10997;52.242;8.168;2022-07-22T15:57:15;6.32;;;3.10;;
21671;SDS011;10997;52.242;8.168;2022-07-22T16:02:34;4.50;;;3.20;;
21671;SDS011;10997;52.242;8.168;2022-07-22T16:07:34;7.85;;;3.20;;
21671;SDS011;10997;52.242;8.168;2022-07-22T16:12:35;5.90;;;3.10;;
21671;SDS011;10997;52.242;8.168;2022-07-22T16:17:37;6.22;;;3.10;;
21671;SDS011;10997;52.242;8.168;2022-07-22T16:22:38;6.25;;;3.58;;
21671;SDS011;10997;52.242;8.168;2022-07-22T16:27:39;6.35;;;3.28;;
21671;SDS011;10997;52.242;8.168;2022-07-22T16:32:40;6.90;;;3.30;;
21671;SDS011;10997;52.242;8.168;2022-07-22T16:37:41;5.60;;;3.10;;
21671;SDS011;10997;52.242;8.168;2022-07-22T16:42:42;6.55;;;3.25;;
21671;SDS011;10997;52.242;8.168;2022-07-22T16:47:43;7.47;;;3.45;;
21671;SDS011;10997;52.242;8.168;2022-07-22T16:52:43;6.93;;;3.25;;
21671;SDS011;10997;52.242;8.168;2022-07-22T16:57:44;7.60;;;3.13;;
21671;SDS011;10997;52.242;8.168;2022-07-22T17:02:45;7.03;;;3.30;;
21671;SDS011;10997;52.242;8.168;2022-07-22T17:07:45;5.18;;;3.00;;
21671;SDS011;10997;52.242;8.168;2022-07-22T17:12:46;6.03;;;3.42;;
21671;SDS011;10997;52.242;8.168;2022-07-22T17:17:48;5.85;;;2.97;;
21671;SDS011;10997;52.242;8.168;2022-07-22T17:22:49;5.30;;;2.80;;
21671;SDS011;10997;52.242;8.168;2022-07-22T17:27:53;5.43;;;2.88;;
21671;SDS011;10997;52.242;8.168;2022-07-22T17:32:59;6.07;;;2.83;;
21671;SDS011;10997;52.242;8.168;2022-07-22T17:38:01;4.50;;;2.53;;
21671;SDS011;10997;52.242;8.168;2022-07-22T17:43:03;4.82;;;2.58;;
21671;SDS011;10997;52.242;8.168;2022-07-22T17:48:04;3.97;;;2.60;;
21671;SDS011;10997;52.242;8.168;2022-07-22T17:53:06;5.95;;;3.30;;
21671;SDS011;10997;52.242;8.168;2022-07-22T17:58:08;4.53;;;2.72;;
21671;SDS011;10997;52.242;8.168;2022-07-22T18:03:08;5.68;;;2.85;;
21671;SDS011;10997;52.242;8.168;2022-07-22T18:08:09;4.55;;;3.30;;
21671;SDS011;10997;52.242;8.168;2022-07-22T18:13:10;5.32;;;3.47;;
21671;SDS011;10997;52.242;8.168;2022-07-22T18:18:11;5.68;;;3.33;;
21671;SDS011;10997;52.242;8.168;2022-07-22T18:23:12;5.13;;;3.10;;
21671;SDS011;10997;52.242;8.168;2022-07-22T18:28:12;7.70;;;3.80;;
21671;SDS011;10997;52.242;8.168;2022-07-22T18:33:13;8.65;;;3.95;;
21671;SDS011;10997;52.242;8.168;2022-07-22T18:38:15;5.72;;;3.40;;
21671;SDS011;10997;52.242;8.168;2022-07-22T18:43:16;6.82;;;3.55;;
21671;SDS011;10997;52.242;8.168;2022-07-22T18:48:17;7.43;;;3.60;;
21671;SDS011;10997;52.242;8.168;2022-07-22T18:53:17;8.77;;;4.07;;
21671;SDS011;10997;52.242;8.168;2022-07-22T18:58:18;4.68;;;3.55;;
21671;SDS011;10997;52.242;8.168;2022-07-22T19:03:19;6.40;;;3.67;;
21671;SDS011;10997;52.242;8.168;2022-07-22T19:08:19;6.20;;;3.85;;
21671;SDS011;10997;52.242;8.168;2022-07-22T19:13:20;7.50;;;3.50;;
21671;SDS011;10997;52.242;8.168;2022-07-22T19:18:21;4.05;;;3.10;;
21671;SDS011;10997;52.242;8.168;2022-07-22T19:23:23;6.32;;;3.67;;
21671;SDS011;10997;52.242;8.168;2022-07-22T19:28:24;6.20;;;3.65;;
21671;SDS011;10997;52.242;8.168;2022-07-22T19:33:25;7.72;;;3.67;;
21671;SDS011;10997;52.242;8.168;2022-07-22T19:38:25;6.03;;;3.70;;
21671;SDS011;10997;52.242;8.168;2022-07-22T19:43:26;8.35;;;3.83;;
21671;SDS011;10997;52.242;8.168;2022-07-22T19:48:26;6.00;;;3.38;;
21671;SDS011;10997;52.242;8.168;2022-07-22T19:53:27;6.35;;;4.20;;
21671;SDS011;10997;52.242;8.168;2022-07-22T19:58:28;5.95;;;3.60;;
21671;SDS011;10997;52.242;8.168;2022-07-22T20:03:28;9.23;;;4.25;;
21671;SDS011;10997;52.242;8.168;2022-07-22T20:08:30;7.38;;;4.00;;
21671;SDS011;10997;52.242;8.168;2022-07-22T20:13:31;7.65;;;4.22;;
21671;SDS011;10997;52.242;8.168;2022-07-22T20:18:31;11.57;;;4.70;;
21671;SDS011;10997;52.242;8.168;2022-07-22T20:23:32;5.30;;;3.95;;
21671;SDS011;10997;52.242;8.168;2022-07-22T20:28:33;8.25;;;4.60;;
21671;SDS011;10997;52.242;8.168;2022-07-22T20:33:34;7.32;;;4.50;;
21671;SDS011;10997;52.242;8.168;2022-07-22T20:38:34;5.45;;;3.97;;
21671;SDS011;10997;52.242;8.168;2022-07-22T20:43:35;7.22;;;4.38;;
21671;SDS011;10997;52.242;8.168;2022-07-22T20:48:36;6.75;;;4.13;;
21671;SDS011;10997;52.242;8.168;2022-07-22T20:53:38;6.63;;;4.75;;
21671;SDS011;10997;52.242;8.168;2022-07-22T20:58:40;5.88;;;4.40;;
21671;SDS011;10997;52.242;8.168;2022-07-22T21:03:41;6.35;;;4.47;;
21671;SDS011;10997;52.242;8.168;2022-07-22T21:08:42;5.35;;;4.50;;
21671;SDS011;10997;52.242;8.168;2022-07-22T21:13:43;10.48;;;5.07;;
21671;SDS011;10997;52.242;8.168;2022-07-22T21:18:43;7.30;;;4.85;;
21671;SDS011;10997;52.242;8.168;2022-07-22T21:23:44;8.13;;;4.70;;
21671;SDS011;10997;52.242;8.168;2022-07-22T21:28:45;6.82;;;4.85;;
21671;SDS011;10997;52.242;8.168;2022-07-22T21:33:45;8.15;;;5.22;;
21671;SDS011;10997;52.242;8.168;2022-07-22T21:38:46;7.95;;;4.90;;
21671;SDS011;10997;52.242;8.168;2022-07-22T21:43:47;8.82;;;5.00;;
21671;SDS011;10997;52.242;8.168;2022-07-22T21:48:47;8.20;;;5.18;;
21671;SDS011;10997;52.242;8.168;2022-07-22T21:53:48;8.05;;;5.32;;
21671;SDS011;10997;52.242;8.168;2022-07-22T21:58:49;11.10;;;5.63;;
21671;SDS011;10997;52.242;8.168;2022-07-22T22:03:51;12.30;;;5.82;;
21671;SDS011;10997;52.242;8.168;2022-07-22T22:08:52;6.35;;;5.63;;
21671;SDS011;10997;52.242;8.168;2022-07-22T22:13:52;8.45;;;6.05;;
21671;SDS011;10997;52.242;8.168;2022-07-22T22:18:53;10.10;;;5.78;;
21671;SDS011;10997;52.242;8.168;2022-07-22T22:23:54;8.23;;;5.80;;
21671;SDS011;10997;52.242;8.168;2022-07-22T22:28:55;10.27;;;5.60;;
21671;SDS011;10997;52.242;8.168;2022-07-22T22:33:56;7.35;;;5.95;;
21671;SDS011;10997;52.242;8.168;2022-07-22T22:38:56;7.40;;;6.18;;
21671;SDS011;10997;52.242;8.168;2022-07-22T22:43:58;8.52;;;6.45;;
21671;SDS011;10997;52.242;8.168;2022-07-22T22:48:59;10.57;;;6.40;;
21671;SDS011;10997;52.242;8.168;2022-07-22T22:54:00;9.77;;;6.55;;
21671;SDS011;10997;52.242;8.168;2022-07-22T22:59:01;9.75;;;6.40;;
21671;SDS011;10997;52.242;8.168;2022-07-22T23:04:01;9.98;;;6.10;;
21671;SDS011;10997;52.242;8.168;2022-07-22T23:09:02;9.93;;;6.10;;
21671;SDS011;10997;52.242;8.168;2022-07-22T23:14:03;7.90;;;5.75;;
21671;SDS011;10997;52.242;8.168;2022-07-22T23:19:04;8.95;;;6.25;;
21671;SDS011;10997;52.242;8.168;2022-07-22T23:24:04;7.38;;;5.93;;
21671;SDS011;10997;52.242;8.168;2022-07-22T23:29:05;10.50;;;6.00;;
21671;SDS011;10997;52.242;8.168;2022-07-22T23:34:06;10.98;;;5.93;;
21671;SDS011;10997;52.242;8.168;2022-07-22T23:39:07;8.68;;;6.30;;
21671;SDS011;10997;52.242;8.168;2022-07-22T23:44:08;9.95;;;6.95;;
21671;SDS011;10997;52.242;8.168;2022-07-22T23:49:10;8.32;;;6.47;;
21671;SDS011;10997;52.242;8.168;2022-07-22T23:54:10;10.27;;;6.25;;
21671;SDS011;10997;52.242;8.168;2022-07-22T23:59:11;15.02;;;6.70;;
